Time;durP1;ratioP1;P1;durP2;ratioP2;P2;SDS_P1;SDS_P2;PMS_P1;PMS_P2;Temp;Humidity;BMP_temperature;BMP_pressure;BME280_temperature;BME280_humidity;BME280_pressure;Samples;Min_cycle;Max_cycle;Signal;HPM_P1;HPM_P2
2021/12/25 00:01:25;;;;;;;26.80;12.93;;;;;;;;;;5076969;28;20040;-74
2021/12/25 00:03:52;;;;;;;26.70;13.95;;;;;;;;;;5094452;28;20099;-75
2021/12/25 00:06:18;;;;;;;25.90;13.27;;;;;;;;;;5098113;28;20024;-74
2021/12/25 00:08:44;;;;;;;26.65;14.15;;;;;;;;;;5094441;28;20051;-73
2021/12/25 00:11:11;;;;;;;27.83;14.73;;;;;;;;;;5094618;28;20103;-74
2021/12/25 00:13:37;;;;;;;27.75;14.30;;;;;;;;;;5094370;28;20016;-74
2021/12/25 00:16:03;;;;;;;27.27;14.45;;;;;;;;;;5094629;28;20028;-75
2021/12/25 00:18:29;;;;;;;25.58;13.80;;;;;;;;;;5076908;28;20081;-74
2021/12/25 00:20:55;;;;;;;25.48;13.60;;;;;;;;;;5094744;28;20027;-75
2021/12/25 00:23:22;;;;;;;27.45;14.38;;;;;;;;;;5094442;28;20036;-75
2021/12/25 00:25:54;;;;;;;25.83;13.32;;;;;;;;;;5075622;28;20032;-69
2021/12/25 00:33:50;;;;;;;24.90;12.38;;;;;;;;;;5069142;28;20384;-73
2021/12/25 00:36:20;;;;;;;24.35;12.85;;;;;;;;;;5092492;28;20073;-73
2021/12/25 00:38:47;;;;;;;25.30;12.10;;;;;;;;;;5076268;28;20020;-73
2021/12/25 00:41:16;;;;;;;25.40;12.40;;;;;;;;;;5076472;28;20023;-74
2021/12/25 00:43:42;;;;;;;23.52;10.85;;;;;;;;;;5076002;28;20483;-72
2021/12/25 00:46:08;;;;;;;21.58;11.48;;;;;;;;;;5100292;28;20051;-73
2021/12/25 00:48:35;;;;;;;24.10;12.05;;;;;;;;;;5103998;28;20086;-73
2021/12/25 00:51:01;;;;;;;24.25;12.13;;;;;;;;;;5099846;28;20116;-72
2021/12/25 00:53:27;;;;;;;22.42;11.07;;;;;;;;;;5078826;28;20020;-73
2021/12/25 00:55:53;;;;;;;21.30;10.05;;;;;;;;;;5097349;28;20031;-74
2021/12/25 00:58:18;;;;;;;22.38;10.60;;;;;;;;;;5082034;28;20521;-73
2021/12/25 01:00:45;;;;;;;20.48;10.30;;;;;;;;;;5083252;28;20024;-74
2021/12/25 01:03:11;;;;;;;22.05;10.88;;;;;;;;;;5100309;28;20031;-74
2021/12/25 01:05:37;;;;;;;24.08;11.98;;;;;;;;;;5083784;28;20028;-74
2021/12/25 01:08:03;;;;;;;19.85;9.23;;;;;;;;;;5083932;28;20038;-73
2021/12/25 01:10:30;;;;;;;21.27;10.88;;;;;;;;;;5101778;28;20020;-74
2021/12/25 01:13:09;;;;;;;19.27;9.23;;;;;;;;;;5099767;28;20020;-74
2021/12/25 01:15:50;;;;;;;22.10;9.60;;;;;;;;;;5098841;22;20039;-72
2021/12/25 01:26:50;;;;;;;18.75;8.55;;;;;;;;;;5051777;28;20029;-70
2021/12/25 01:36:56;;;;;;;17.15;7.70;;;;;;;;;;5051617;28;20393;-70
2021/12/25 01:40:11;;;;;;;17.48;7.97;;;;;;;;;;5033846;28;20098;-70
2021/12/25 01:47:49;;;;;;;19.08;8.02;;;;;;;;;;5051949;28;20039;-69
2021/12/25 01:50:21;;;;;;;18.52;7.78;;;;;;;;;;5051605;28;20017;-69
2021/12/25 01:52:47;;;;;;;19.30;7.90;;;;;;;;;;5050864;28;20074;-68
2021/12/25 01:55:18;;;;;;;18.00;7.32;;;;;;;;;;5051640;28;20474;-70
2021/12/25 01:57:44;;;;;;;19.38;7.82;;;;;;;;;;5051695;28;20021;-69
2021/12/25 02:00:21;;;;;;;17.52;7.38;;;;;;;;;;5033481;28;20025;-69
2021/12/25 02:02:47;;;;;;;17.70;7.63;;;;;;;;;;5033037;28;20032;-69
2021/12/25 02:05:14;;;;;;;17.90;7.07;;;;;;;;;;5051590;28;20508;-69
2021/12/25 02:07:39;;;;;;;17.08;6.85;;;;;;;;;;5051376;28;20460;-69
2021/12/25 02:10:07;;;;;;;16.10;6.72;;;;;;;;;;5033862;28;20079;-74
2021/12/25 02:12:33;;;;;;;18.13;7.65;;;;;;;;;;5033803;28;20018;-69
2021/12/25 02:15:08;;;;;;;18.52;7.28;;;;;;;;;;5052066;28;20029;-69
2021/12/25 02:17:52;;;;;;;19.27;8.05;;;;;;;;;;5033441;28;20025;-71
2021/12/25 02:20:24;;;;;;;17.55;7.47;;;;;;;;;;5051342;28;20142;-70
2021/12/25 02:22:54;;;;;;;17.35;6.57;;;;;;;;;;5032720;28;20025;-70
2021/12/25 02:25:21;;;;;;;17.27;7.35;;;;;;;;;;5051244;28;20028;-69
2021/12/25 02:27:47;;;;;;;18.08;7.57;;;;;;;;;;5051371;28;20489;-70
2021/12/25 02:30:13;;;;;;;18.30;7.88;;;;;;;;;;5050976;28;20036;-69
2021/12/25 02:32:39;;;;;;;19.38;7.43;;;;;;;;;;5032557;28;20037;-70
2021/12/25 02:35:05;;;;;;;17.92;7.35;;;;;;;;;;5055146;28;20052;-69
2021/12/25 02:37:31;;;;;;;22.05;7.90;;;;;;;;;;5056141;28;20025;-69
2021/12/25 02:39:57;;;;;;;17.15;7.18;;;;;;;;;;5057035;28;20031;-70
2021/12/25 02:42:23;;;;;;;19.67;7.30;;;;;;;;;;5038160;28;20029;-72
2021/12/25 02:44:49;;;;;;;17.10;7.10;;;;;;;;;;5056272;28;20079;-71
2021/12/25 02:47:19;;;;;;;20.33;7.65;;;;;;;;;;5055634;28;20461;-72
2021/12/25 02:49:54;;;;;;;17.65;7.03;;;;;;;;;;5037796;28;20021;-69
2021/12/25 02:52:20;;;;;;;16.50;6.93;;;;;;;;;;5037149;28;20021;-71
2021/12/25 02:54:46;;;;;;;19.27;7.60;;;;;;;;;;5037600;28;20033;-69
2021/12/25 02:57:12;;;;;;;20.15;8.25;;;;;;;;;;5055055;28;20025;-70
2021/12/25 02:59:38;;;;;;;18.75;7.97;;;;;;;;;;5055685;28;20413;-69
2021/12/25 03:02:11;;;;;;;19.27;7.45;;;;;;;;;;5055219;28;20032;-71
2021/12/25 03:04:43;;;;;;;19.65;7.93;;;;;;;;;;5037817;28;20036;-69
2021/12/25 03:07:10;;;;;;;17.80;6.93;;;;;;;;;;5055299;28;20103;-69
2021/12/25 03:09:36;;;;;;;19.45;7.57;;;;;;;;;;5037612;28;20446;-70
2021/12/25 03:12:04;;;;;;;17.77;7.13;;;;;;;;;;5036655;28;20115;-69
2021/12/25 03:14:35;;;;;;;;;;;;;;;;;;5055819;28;20041;-70
2021/12/25 03:17:01;;;;;;;16.75;6.50;;;;;;;;;;5037214;28;19916;-71
2021/12/25 03:19:32;;;;;;;16.05;6.32;;;;;;;;;;5037290;28;20112;-69
2021/12/25 03:21:58;;;;;;;17.35;7.10;;;;;;;;;;5053734;28;20021;-69
2021/12/25 03:24:28;;;;;;;15.90;6.32;;;;;;;;;;5054074;28;20033;-69
2021/12/25 03:26:56;;;;;;;16.92;7.07;;;;;;;;;;5053849;28;20114;-69
2021/12/25 03:29:22;;;;;;;18.35;7.60;;;;;;;;;;5036104;28;20032;-70
2021/12/25 03:31:49;;;;;;;16.98;6.22;;;;;;;;;;5053358;28;20040;-69
2021/12/25 03:34:15;;;;;;;16.30;5.90;;;;;;;;;;5036078;28;20028;-70
2021/12/25 03:36:41;;;;;;;15.82;6.10;;;;;;;;;;5035754;28;20021;-70
2021/12/25 03:39:07;;;;;;;14.98;5.55;;;;;;;;;;5036116;28;20509;-69
2021/12/25 03:41:33;;;;;;;13.98;5.60;;;;;;;;;;5053372;28;20021;-71
2021/12/25 03:44:00;;;;;;;14.90;5.35;;;;;;;;;;5053424;28;20035;-68
2021/12/25 03:46:29;;;;;;;16.23;4.80;;;;;;;;;;5037278;28;20085;-70
2021/12/25 03:59:18;;;;;;;14.25;5.35;;;;;;;;;;5055622;28;20062;-71
2021/12/25 04:01:59;;;;;;;13.02;5.00;;;;;;;;;;5054957;28;20025;-69
2021/12/25 04:04:33;;;;;;;13.68;4.80;;;;;;;;;;5037180;28;20131;-69
2021/12/25 04:07:05;;;;;;;14.75;6.38;;;;;;;;;;5055438;28;20037;-73
2021/12/25 04:09:33;;;;;;;13.88;5.43;;;;;;;;;;5054862;28;20025;-70
2021/12/25 04:12:10;;;;;;;13.57;5.32;;;;;;;;;;5036942;28;20158;-71
2021/12/25 04:14:37;;;;;;;15.85;5.72;;;;;;;;;;5036692;28;20443;-69
2021/12/25 04:17:03;;;;;;;15.18;5.65;;;;;;;;;;5054428;28;20044;-73
2021/12/25 04:19:29;;;;;;;13.32;5.53;;;;;;;;;;5054871;28;20028;-69
2021/12/25 04:24:26;;;;;;;13.35;4.88;;;;;;;;;;5055226;28;20024;-69
2021/12/25 04:26:52;;;;;;;16.15;5.50;;;;;;;;;;5036902;28;20025;-69
2021/12/25 05:01:51;;;;;;;14.23;5.20;;;;;;;;;;5052825;28;20036;-69
2021/12/25 05:04:29;;;;;;;13.23;4.45;;;;;;;;;;5052892;28;20021;-70
2021/12/25 05:06:55;;;;;;;14.00;5.28;;;;;;;;;;5034524;28;20032;-69
2021/12/25 05:09:21;;;;;;;14.48;5.25;;;;;;;;;;5052254;28;20028;-69
2021/12/25 05:11:47;;;;;;;13.95;5.03;;;;;;;;;;5052416;28;20025;-68
2021/12/25 05:14:13;;;;;;;13.40;5.10;;;;;;;;;;5052965;28;20028;-68
2021/12/25 05:16:40;;;;;;;13.90;5.38;;;;;;;;;;5052756;28;20061;-69
2021/12/25 05:19:06;;;;;;;15.63;6.10;;;;;;;;;;5034709;28;20091;-70
2021/12/25 05:21:32;;;;;;;15.77;5.60;;;;;;;;;;5034195;28;20493;-69
2021/12/25 05:23:59;;;;;;;15.32;5.32;;;;;;;;;;5033826;28;20120;-70
2021/12/25 05:26:25;;;;;;;15.85;5.75;;;;;;;;;;5052031;28;20028;-69
2021/12/25 05:28:58;;;;;;;15.95;5.57;;;;;;;;;;5051973;28;20033;-69
2021/12/25 05:31:27;;;;;;;15.80;5.68;;;;;;;;;;5051882;28;20021;-69
2021/12/25 05:33:54;;;;;;;14.93;5.90;;;;;;;;;;5050910;28;20370;-69
2021/12/25 05:36:20;;;;;;;21.60;7.32;;;;;;;;;;5051327;28;20496;-69
2021/12/25 05:38:46;;;;;;;16.15;5.80;;;;;;;;;;5034055;28;20029;-69
2021/12/25 05:41:13;;;;;;;15.48;5.30;;;;;;;;;;5033872;28;20036;-70
2021/12/25 05:43:39;;;;;;;14.82;5.93;;;;;;;;;;5033130;28;20025;-69
2021/12/25 05:46:05;;;;;;;16.70;5.88;;;;;;;;;;5051661;28;20494;-69
2021/12/25 05:48:35;;;;;;;14.82;5.22;;;;;;;;;;5051562;28;20025;-69
2021/12/25 05:51:02;;;;;;;15.98;5.43;;;;;;;;;;5051615;28;20023;-69
2021/12/25 05:53:28;;;;;;;15.88;6.20;;;;;;;;;;5051027;28;20025;-69
2021/12/25 05:55:54;;;;;;;14.55;5.32;;;;;;;;;;5033728;28;20076;-69
2021/12/25 05:58:20;;;;;;;16.83;5.90;;;;;;;;;;5051546;28;20140;-69
2021/12/25 06:00:46;;;;;;;13.57;4.88;;;;;;;;;;5051367;28;20465;-70
2021/12/25 06:03:12;;;;;;;15.75;5.38;;;;;;;;;;5032831;28;20091;-70
2021/12/25 06:05:38;;;;;;;14.00;5.45;;;;;;;;;;5051262;28;20092;-70
2021/12/25 06:08:05;;;;;;;16.58;5.45;;;;;;;;;;5033267;28;20396;-70
2021/12/25 06:10:30;;;;;;;13.68;5.13;;;;;;;;;;5033387;28;20039;-70
2021/12/25 06:12:59;;;;;;;12.38;4.82;;;;;;;;;;5050779;28;20057;-69
2021/12/25 06:15:26;;;;;;;14.27;4.57;;;;;;;;;;5048323;28;20024;-69
2021/12/25 06:17:52;;;;;;;15.80;5.38;;;;;;;;;;5050936;28;20029;-69
2021/12/25 06:20:18;;;;;;;15.40;5.22;;;;;;;;;;5051205;28;20021;-69
2021/12/25 06:22:44;;;;;;;15.43;5.60;;;;;;;;;;5032471;28;20029;-69
2021/12/25 06:25:10;;;;;;;11.52;4.30;;;;;;;;;;5051249;28;20073;-69
2021/12/25 06:27:37;;;;;;;13.23;4.68;;;;;;;;;;5051037;28;20036;-69
2021/12/25 06:30:03;;;;;;;12.55;4.57;;;;;;;;;;5033338;28;20078;-69
2021/12/25 06:32:29;;;;;;;15.85;5.28;;;;;;;;;;5042340;28;20155;-70
2021/12/25 06:34:55;;;;;;;10.88;4.47;;;;;;;;;;5031037;28;20119;-68
2021/12/25 06:37:23;;;;;;;12.30;4.57;;;;;;;;;;5031041;28;20028;-69
2021/12/25 06:39:49;;;;;;;12.30;4.65;;;;;;;;;;5031218;28;20105;-69
2021/12/25 06:42:15;;;;;;;13.10;4.53;;;;;;;;;;5012981;28;20082;-70
2021/12/25 06:44:42;;;;;;;11.93;4.30;;;;;;;;;;5030979;28;20025;-70
2021/12/25 06:47:08;;;;;;;12.77;4.22;;;;;;;;;;5030803;28;20030;-69
2021/12/25 06:49:34;;;;;;;10.55;4.20;;;;;;;;;;5030794;28;20408;-71
2021/12/25 06:52:00;;;;;;;12.23;4.55;;;;;;;;;;5030195;28;20018;-69
2021/12/25 06:54:26;;;;;;;13.23;4.68;;;;;;;;;;5031009;28;20017;-70
2021/12/25 06:56:53;;;;;;;8.93;3.83;;;;;;;;;;5030492;28;20025;-71
2021/12/25 06:59:21;;;;;;;18.02;6.15;;;;;;;;;;5030762;28;20028;-69
2021/12/25 07:01:48;;;;;;;15.00;6.00;;;;;;;;;;5030241;28;20064;-69
2021/12/25 07:04:14;;;;;;;14.70;5.35;;;;;;;;;;5030692;28;20041;-68
2021/12/25 07:06:40;;;;;;;11.30;4.32;;;;;;;;;;5030711;28;20029;-69
2021/12/25 07:09:06;;;;;;;11.15;3.90;;;;;;;;;;5030781;28;20072;-69
2021/12/25 07:11:33;;;;;;;9.57;3.80;;;;;;;;;;5030481;28;20104;-69
2021/12/25 07:14:02;;;;;;;8.15;3.60;;;;;;;;;;5030450;28;20571;-68
2021/12/25 07:16:28;;;;;;;9.90;3.72;;;;;;;;;;5060258;23;20037;-68
2021/12/25 07:18:53;;;;;;;8.52;3.70;;;;;;;;;;5054484;28;20504;-68
2021/12/25 07:21:19;;;;;;;7.15;3.63;;;;;;;;;;5057731;28;20075;-67
2021/12/25 07:23:45;;;;;;;8.57;4.20;;;;;;;;;;5074719;28;20111;-67
2021/12/25 07:26:12;;;;;;;7.13;3.55;;;;;;;;;;5075183;28;20031;-66
2021/12/25 07:28:38;;;;;;;8.30;3.75;;;;;;;;;;5075021;28;20056;-68
2021/12/25 07:31:05;;;;;;;11.85;4.30;;;;;;;;;;5057504;28;20028;-68
2021/12/25 07:33:32;;;;;;;11.18;4.00;;;;;;;;;;5056661;28;20032;-67
2021/12/25 07:35:58;;;;;;;9.38;3.75;;;;;;;;;;5057129;28;20029;-66
2021/12/25 07:38:25;;;;;;;9.55;3.72;;;;;;;;;;5056712;28;20017;-67
2021/12/25 07:40:51;;;;;;;9.63;3.85;;;;;;;;;;5075083;28;20070;-67
2021/12/25 07:43:17;;;;;;;8.23;3.60;;;;;;;;;;5056411;28;20032;-66
2021/12/25 07:45:46;;;;;;;10.38;4.00;;;;;;;;;;5057142;28;20028;-67
2021/12/25 07:48:12;;;;;;;10.80;3.97;;;;;;;;;;5056941;28;20243;-67
2021/12/25 07:50:39;;;;;;;11.18;4.00;;;;;;;;;;5074866;28;20516;-67
2021/12/25 07:53:05;;;;;;;10.07;3.92;;;;;;;;;;5056181;28;20067;-68
2021/12/25 07:55:32;;;;;;;10.48;3.83;;;;;;;;;;5056887;28;20086;-66
2021/12/25 07:58:01;;;;;;;8.85;3.60;;;;;;;;;;5074640;28;20056;-66
2021/12/25 08:00:28;;;;;;;12.13;3.42;;;;;;;;;;5056684;28;20108;-67
2021/12/25 08:02:54;;;;;;;11.35;3.40;;;;;;;;;;5055103;28;20021;-67
2021/12/25 08:05:21;;;;;;;11.63;3.60;;;;;;;;;;5052555;28;20020;-67
2021/12/25 08:07:47;;;;;;;6.45;3.40;;;;;;;;;;5054294;28;20021;-67
2021/12/25 08:10:13;;;;;;;9.05;3.60;;;;;;;;;;5053352;28;20025;-67
2021/12/25 08:12:50;;;;;;;8.73;3.55;;;;;;;;;;5064718;28;20017;-66
2021/12/25 08:15:17;;;;;;;9.13;3.53;;;;;;;;;;5055307;28;20021;-66
2021/12/25 08:17:44;;;;;;;12.93;4.38;;;;;;;;;;5055656;28;20028;-67
2021/12/25 08:20:10;;;;;;;11.43;3.70;;;;;;;;;;5056232;28;20082;-67
2021/12/25 08:22:36;;;;;;;10.80;3.70;;;;;;;;;;5055532;28;20025;-66
2021/12/25 08:25:03;;;;;;;9.20;3.70;;;;;;;;;;5056320;28;20055;-67
2021/12/25 08:27:29;;;;;;;9.38;3.88;;;;;;;;;;5074036;28;20025;-66
2021/12/25 08:29:55;;;;;;;9.85;4.13;;;;;;;;;;5055757;28;20025;-67
2021/12/25 08:32:21;;;;;;;11.55;3.72;;;;;;;;;;5054517;28;20392;-67
2021/12/25 08:34:48;;;;;;;9.98;3.70;;;;;;;;;;5055926;28;20021;-67
2021/12/25 08:37:14;;;;;;;8.68;3.88;;;;;;;;;;5073724;28;20100;-67
2021/12/25 08:39:40;;;;;;;9.23;4.05;;;;;;;;;;5056015;28;20029;-66
2021/12/25 08:42:06;;;;;;;10.27;3.78;;;;;;;;;;5055340;28;20029;-66
2021/12/25 08:44:41;;;;;;;10.90;3.85;;;;;;;;;;5066009;28;20032;-64
2021/12/25 08:47:08;;;;;;;10.02;3.80;;;;;;;;;;5061329;28;20115;-64
2021/12/25 08:49:35;;;;;;;8.18;3.92;;;;;;;;;;5053215;28;20031;-66
2021/12/25 08:52:05;;;;;;;10.80;4.18;;;;;;;;;;5073739;28;20047;-70
2021/12/25 08:54:31;;;;;;;8.13;3.92;;;;;;;;;;5057513;28;20044;-70
2021/12/25 08:56:57;;;;;;;10.77;4.47;;;;;;;;;;5056658;28;20493;-73
2021/12/25 08:59:23;;;;;;;11.45;4.43;;;;;;;;;;5074009;28;20035;-72
2021/12/25 09:01:49;;;;;;;11.63;4.28;;;;;;;;;;5073416;28;20035;-72
2021/12/25 09:04:15;;;;;;;10.48;4.13;;;;;;;;;;5074132;28;20029;-73
2021/12/25 09:06:42;;;;;;;7.70;4.20;;;;;;;;;;5074062;28;20031;-73
2021/12/25 09:09:08;;;;;;;12.63;4.38;;;;;;;;;;5056019;28;20432;-74
2021/12/25 09:11:34;;;;;;;11.90;4.45;;;;;;;;;;5073391;28;20067;-71
2021/12/25 09:14:00;;;;;;;9.90;4.60;;;;;;;;;;5055933;28;20473;-73
2021/12/25 09:16:26;;;;;;;13.20;5.95;;;;;;;;;;5055692;28;20031;-73
2021/12/25 09:18:53;;;;;;;12.60;4.75;;;;;;;;;;5055848;28;20029;-72
2021/12/25 09:21:19;;;;;;;13.32;5.40;;;;;;;;;;5055740;28;20480;-71
2021/12/25 09:23:45;;;;;;;10.48;5.15;;;;;;;;;;5072617;28;20104;-67
2021/12/25 09:26:11;;;;;;;18.50;5.85;;;;;;;;;;5055100;28;20024;-67
2021/12/25 09:28:37;;;;;;;10.27;4.80;;;;;;;;;;5072775;28;20033;-67
2021/12/25 09:31:03;;;;;;;9.90;4.80;;;;;;;;;;5054707;28;20016;-67
2021/12/25 09:33:30;;;;;;;10.07;4.75;;;;;;;;;;5072161;28;20031;-67
2021/12/25 09:35:56;;;;;;;8.95;4.40;;;;;;;;;;5072420;28;20107;-66
2021/12/25 09:38:22;;;;;;;10.95;4.30;;;;;;;;;;5072449;28;20020;-67
2021/12/25 09:40:48;;;;;;;10.75;4.53;;;;;;;;;;5072920;28;20100;-67
2021/12/25 09:43:17;;;;;;;18.77;6.15;;;;;;;;;;5053737;28;20074;-67
2021/12/25 09:45:43;;;;;;;9.90;4.60;;;;;;;;;;5072594;28;20103;-66
2021/12/25 09:48:09;;;;;;;9.93;4.78;;;;;;;;;;5054566;28;20491;-67
2021/12/25 09:50:35;;;;;;;10.65;4.97;;;;;;;;;;5054336;28;20017;-67
2021/12/25 09:53:05;;;;;;;10.55;5.13;;;;;;;;;;5071782;28;20027;-67
2021/12/25 09:55:31;;;;;;;10.45;5.20;;;;;;;;;;5072542;28;20017;-67
2021/12/25 09:57:57;;;;;;;10.75;4.88;;;;;;;;;;5054687;28;20525;-67
2021/12/25 10:00:23;;;;;;;10.45;4.82;;;;;;;;;;5054369;28;20020;-66
2021/12/25 10:02:51;;;;;;;11.48;5.13;;;;;;;;;;5053781;28;20025;-67
2021/12/25 10:05:37;;;;;;;10.03;4.57;;;;;;;;;;5054798;28;20166;-67
2021/12/25 10:08:11;;;;;;;10.13;4.95;;;;;;;;;;5054104;28;20353;-66
2021/12/25 10:10:46;;;;;;;11.75;5.63;;;;;;;;;;5054477;28;20116;-67
2021/12/25 10:13:19;;;;;;;10.10;4.55;;;;;;;;;;5053929;28;20108;-67
2021/12/25 10:15:46;;;;;;;11.20;5.00;;;;;;;;;;5054439;28;20020;-68
2021/12/25 10:18:12;;;;;;;12.88;5.10;;;;;;;;;;5054348;28;20035;-68
2021/12/25 10:20:38;;;;;;;10.88;4.85;;;;;;;;;;5071867;28;20031;-68
2021/12/25 10:23:09;;;;;;;11.70;4.90;;;;;;;;;;5052343;28;20029;-68
2021/12/25 10:25:42;;;;;;;10.50;4.85;;;;;;;;;;5051184;28;20047;-66
2021/12/25 10:28:09;;;;;;;10.10;4.72;;;;;;;;;;5050734;28;20029;-67
2021/12/25 10:30:49;;;;;;;9.85;4.57;;;;;;;;;;5052425;28;20412;-68
2021/12/25 10:33:24;;;;;;;11.00;4.70;;;;;;;;;;5052484;28;20545;-68
2021/12/25 10:35:50;;;;;;;12.38;4.80;;;;;;;;;;5072171;28;20028;-69
2021/12/25 10:38:17;;;;;;;11.95;5.05;;;;;;;;;;5061234;28;20025;-68
2021/12/25 10:40:43;;;;;;;9.88;4.68;;;;;;;;;;5072482;28;20035;-68
2021/12/25 10:43:19;;;;;;;10.35;4.68;;;;;;;;;;5053607;28;20349;-68
2021/12/25 10:45:58;;;;;;;11.82;4.97;;;;;;;;;;5049511;28;20040;-67
2021/12/25 10:48:31;;;;;;;11.02;5.13;;;;;;;;;;5062692;28;20067;-68
2021/12/25 10:50:58;;;;;;;11.68;5.18;;;;;;;;;;5070982;28;20096;-67
2021/12/25 10:53:29;;;;;;;12.15;5.32;;;2.70;99.90;;;;;;5069012;28;20035;-68
2021/12/25 10:56:15;;;;;;;12.07;5.40;;;1.80;99.30;;;;;;5057022;28;20025;-68
2021/12/25 10:58:42;;;;;;;13.73;6.38;;;2.60;96.40;;;;;;5052563;28;20053;-68
2021/12/25 11:01:11;;;;;;;11.63;5.88;;;3.20;94.10;;;;;;5037988;28;20060;-69
2021/12/25 11:03:40;;;;;;;12.60;6.13;;;3.50;92.10;;;;;;5055797;28;20392;-70
2021/12/25 11:06:16;;;;;;;13.57;6.50;;;4.10;91.50;;;;;;5057968;28;20032;-69
2021/12/25 11:08:43;;;;;;;12.25;6.32;;;4.60;89.70;;;;;;5054192;28;20071;-70
2021/12/25 11:11:11;;;;;;;12.82;6.45;;;4.80;85.60;;;;;;5038729;28;20094;-70
2021/12/25 11:13:38;;;;;;;14.65;6.30;;;5.10;84.70;;;;;;5055477;28;20049;-70
2021/12/25 11:16:21;;;;;;;14.70;6.75;;;5.60;80.70;;;;;;5049045;28;20032;-69
2021/12/25 11:21:35;;;;;;;20.75;7.78;;;5.70;75.60;;;;;;5073152;28;20604;-69
2021/12/25 11:24:05;;;;;;;16.73;7.00;;;;;;;;;;5060828;28;20029;-68
2021/12/25 11:26:31;;;;;;;15.02;7.20;;;;;;;;;;5073134;28;20040;-69
2021/12/25 11:28:57;;;;;;;14.40;7.10;;;;;;;;;;5054416;28;20032;-69
2021/12/25 11:31:23;;;;;;;13.60;7.00;;;;;;;;;;5039831;28;20397;-68
2021/12/25 11:33:50;;;;;;;15.40;7.13;;;;;;;;;;5056726;28;20016;-68
2021/12/25 11:36:17;;;;;;;17.88;7.25;;;;;;;;;;5055932;28;20036;-69
2021/12/25 11:38:44;;;;;;;13.18;6.75;;;;;;;;;;5054375;28;20601;-68
2021/12/25 11:41:13;;;;;;;14.52;7.38;;;;;;;;;;5056690;28;20036;-68
2021/12/25 11:43:41;;;;;;;14.38;7.25;;;;;;;;;;5074524;28;20025;-70
2021/12/25 11:46:08;;;;;;;12.63;6.60;;;;;;;;;;5074452;28;20032;-68
2021/12/25 11:48:36;;;;;;;14.15;6.53;;;;;;;;;;5056232;28;20036;-69
2021/12/25 11:51:02;;;;;;;13.77;6.90;;;;;;;;;;5057297;28;20016;-69
2021/12/25 11:58:44;;;;;;;12.57;6.60;;;;;;;;;;5072181;28;20021;-68
2021/12/25 12:01:22;;;;;;;11.75;6.22;;;;;;;;;;5056168;28;20111;-69
2021/12/25 12:03:57;;;;;;;12.95;6.70;;;;;;;;;;5054959;28;20029;-68
2021/12/25 12:06:41;;;;;;;13.98;6.75;;;;;;;;;;5070802;28;20025;-68
2021/12/25 12:09:10;;;;;;;13.57;6.88;;;;;;;;;;5056069;28;20029;-68
2021/12/25 12:11:37;;;;;;;12.27;6.80;;;;;;;;;;5054179;28;20032;-66
2021/12/25 12:14:16;;;;;;;13.68;7.05;;;;;;;;;;5069103;28;20472;-68
2021/12/25 12:16:53;;;;;;;13.20;6.97;;;;;;;;;;5055873;28;20423;-67
2021/12/25 12:19:43;;;;;;;11.90;6.32;;;5.80;76.80;;;;;;5055038;28;20526;-68
2021/12/25 12:27:41;;;;;;;14.93;6.90;;;5.90;65.10;;;;;;5073615;28;20033;-67
2021/12/25 12:30:08;;;;;;;14.27;7.10;;;;;;;;;;5074154;28;20485;-68
2021/12/25 12:32:45;;;;;;;13.48;6.80;;;6.50;64.30;;;;;;5054558;28;20043;-67
2021/12/25 12:35:36;;;;;;;16.33;7.25;;;8.20;62.40;;;;;;5056096;28;20070;-68
2021/12/25 12:38:21;;;;;;;13.75;6.88;;;;;;;;;;5061795;28;20044;-70
2021/12/25 12:41:07;;;;;;;13.13;6.65;;;;;;;;;;5058250;28;20027;-68
2021/12/25 12:43:53;;;;;;;14.15;6.70;;;;;;;;;;5072819;28;20032;-68
2021/12/25 12:46:19;;;;;;;14.32;6.78;;;;;;;;;;5054690;28;20039;-67
2021/12/25 12:49:07;;;;;;;13.82;7.00;;;7.60;62.40;;;;;;5073576;28;20032;-67
2021/12/25 12:51:34;;;;;;;14.20;7.20;;;8.40;61.80;;;;;;5053718;28;20021;-67
2021/12/25 12:54:01;;;;;;;15.52;7.40;;;;;;;;;;5070778;28;20024;-67
2021/12/25 12:56:26;;;;;;;12.77;6.75;;;8.30;62.40;;;;;;5055783;28;20389;-67
2021/12/25 12:58:54;;;;;;;14.07;6.90;;;7.30;61.80;;;;;;5053235;28;20062;-67
2021/12/25 13:01:22;;;;;;;12.80;6.95;;;7.00;61.10;;;;;;5035542;28;20025;-67
2021/12/25 13:03:53;;;;;;;15.43;7.30;;;7.30;61.00;;;;;;5070695;28;20041;-68
2021/12/25 13:06:19;;;;;;;16.17;7.47;;;7.40;60.70;;;;;;5073414;28;20020;-68
2021/12/25 13:08:47;;;;;;;13.70;6.93;;;7.10;61.00;;;;;;5054230;28;20038;-68
2021/12/25 13:11:22;;;;;;;15.40;7.10;;;7.10;60.10;;;;;;5055221;28;20048;-67
2021/12/25 13:14:05;;;;;;;24.60;7.63;;;;;;;;;;5071992;28;20017;-67
2021/12/25 13:16:40;;;;;;;13.25;7.03;;;7.60;59.40;;;;;;5086430;23;20024;-72
2021/12/25 13:19:07;;;;;;;12.15;6.70;;;9.60;59.40;;;;;;5028906;28;20037;-68
2021/12/25 13:21:34;;;;;;;15.27;7.60;;;9.20;56.90;;;;;;5034715;28;20040;-69
2021/12/25 13:24:13;;;;;;;15.63;7.45;;;8.90;56.70;;;;;;5036829;28;20048;-69
2021/12/25 13:26:42;;;;;;;13.38;6.70;;;;;;;;;;5043752;28;20484;-68
2021/12/25 13:29:09;;;;;;;13.23;6.50;;;;;;;;;;5045106;28;20520;-69
2021/12/25 13:31:36;;;;;;;16.00;6.60;;;;;;;;;;5047048;28;20048;-67
2021/12/25 13:34:21;;;;;;;13.65;7.03;;;;;;;;;;5031588;28;20029;-69
2021/12/25 13:36:57;;;;;;;14.48;7.35;;;7.70;57.20;;;;;;5048535;28;20070;-69
2021/12/25 13:39:26;;;;;;;14.27;6.90;;;;;;;;;;5052245;28;20025;-70
2021/12/25 13:41:57;;;;;;;13.45;7.20;;;;;;;;;;5033295;28;20029;-70
2021/12/25 13:44:26;;;;;;;15.70;7.30;;;;;;;;;;5052519;28;20029;-70
2021/12/25 13:47:00;;;;;;;15.23;7.10;;;8.40;58.20;;;;;;5052326;28;20032;-69
2021/12/25 13:49:45;;;;;;;15.98;7.72;;;8.40;57.50;;;;;;5033910;28;20527;-70
2021/12/25 13:52:22;;;;;;;15.48;7.82;;;;;;;;;;5033359;28;20504;-70
2021/12/25 13:54:58;;;;;;;15.07;7.40;;;8.40;59.00;;;;;;5046162;28;20025;-71
2021/12/25 13:57:25;;;;;;;14.40;7.43;;;7.90;59.60;;;;;;5035732;28;20032;-70
2021/12/25 14:00:01;;;;;;;14.73;7.90;;;;;;;;;;5024428;28;20025;-68
2021/12/25 14:02:29;;;;;;;13.90;7.07;;;;;;;;;;5050944;28;20029;-70
2021/12/25 14:04:56;;;;;;;13.80;7.17;;;;;;;;;;4700673;28;9999596;-69
2021/12/25 14:07:25;;;;;;;13.82;7.40;;;8.10;59.80;;;;;;5046487;28;20423;-70
2021/12/25 14:10:15;;;;;;;14.82;7.03;;;;;;;;;;5031168;28;20171;-70
2021/12/25 14:12:52;;;;;;;13.85;6.93;;;7.20;59.70;;;;;;5048458;28;20029;-70
2021/12/25 14:15:19;;;;;;;17.30;7.85;;;;;;;;;;5049665;28;20025;-70
2021/12/25 14:17:47;;;;;;;15.38;7.35;;;;;;;;;;5048172;28;20425;-70
2021/12/25 14:20:19;;;;;;;15.90;7.25;;;;;;;;;;5031765;28;20029;-70
2021/12/25 14:22:46;;;;;;;15.32;6.90;;;7.20;63.20;;;;;;5030243;28;20544;-67
2021/12/25 14:25:20;;;;;;;14.07;7.40;;;;;;;;;;5031531;28;20056;-68
2021/12/25 14:27:59;;;;;;;13.77;7.18;;;;;;;;;;5049357;28;20051;-70
2021/12/25 14:30:25;;;;;;;13.50;7.10;;;;;;;;;;5051186;28;20064;-68
2021/12/25 14:32:51;;;;;;;13.93;6.80;;;;;;;;;;5049903;28;20032;-68
2021/12/25 14:35:18;;;;;;;15.38;7.40;;;;;;;;;;5053051;28;20033;-69
2021/12/25 14:37:44;;;;;;;15.05;7.70;;;;;;;;;;5035857;28;20027;-69
2021/12/25 14:40:13;;;;;;;15.15;7.10;;;;;;;;;;5039523;28;20116;-69
2021/12/25 14:42:44;;;;;;;13.80;7.00;;;;;;;;;;5032715;28;20045;-69
2021/12/25 14:45:11;;;;;;;14.60;7.00;;;;;;;;;;5028673;28;20563;-68
2021/12/25 14:47:47;;;;;;;12.95;6.80;;;;;;;;;;5053072;28;20040;-69
2021/12/25 14:50:16;;;;;;;14.07;6.93;;;7.30;61.60;;;;;;5051537;28;20497;-69
2021/12/25 14:52:42;;;;;;;13.77;7.05;;;1.10;76.60;;;;;;5051939;28;20024;-70
2021/12/25 14:55:17;;;;;;;13.88;6.65;;;0.80;78.30;;;;;;5053446;28;20104;-70
2021/12/25 14:57:43;;;;;;;13.65;6.28;;;0.60;79.00;;;;;;5055170;28;20031;-70
2021/12/25 15:00:24;;;;;;;13.05;6.20;;;0.50;79.00;;;;;;5055390;28;20029;-70
2021/12/25 15:02:50;;;;;;;12.80;6.32;;;0.30;80.10;;;;;;5036977;28;20029;-71
2021/12/25 15:05:15;;;;;;;13.32;6.35;;;0.10;80.00;;;;;;5055006;28;20100;-73
2021/12/25 15:07:41;;;;;;;14.38;6.50;;;-0.10;80.90;;;;;;5055579;28;20032;-69
2021/12/25 15:10:10;;;;;;;14.93;6.20;;;-0.10;81.10;;;;;;5055434;28;20051;-69
2021/12/25 15:12:37;;;;;;;12.63;6.30;;;-0.20;82.50;;;;;;5054848;28;20021;-69
2021/12/25 15:15:08;;;;;;;12.38;5.90;;;-0.30;81.40;;;;;;5055160;28;20020;-69
2021/12/25 15:17:36;;;;;;;12.88;6.20;;;-0.30;81.90;;;;;;5055012;28;20029;-70
2021/12/25 15:20:14;;;;;;;12.27;6.15;;;-0.40;81.80;;;;;;5047452;28;20065;-70
2021/12/25 15:22:40;;;;;;;11.88;6.00;;;-0.50;82.70;;;;;;5037937;28;20021;-69
2021/12/25 15:25:27;;;;;;;12.48;5.72;;;-0.60;82.60;;;;;;5041833;28;20033;-69
2021/12/25 15:27:56;;;;;;;12.50;5.82;;;-0.70;83.30;;;;;;5034063;28;20036;-69
2021/12/25 15:30:24;;;;;;;13.20;6.47;;;-0.80;84.60;;;;;;5034688;28;20085;-68
2021/12/25 15:32:53;;;;;;;12.73;6.28;;;-0.80;84.10;;;;;;5034528;28;20095;-69
2021/12/25 15:35:35;;;;;;;13.93;6.63;;;-0.70;83.40;;;;;;5050133;28;20151;-69
2021/12/25 15:38:02;;;;;;;12.98;6.00;;;-0.80;83.20;;;;;;5033755;28;20018;-69
2021/12/25 15:40:39;;;;;;;14.13;6.20;;;-0.90;83.60;;;;;;5034441;28;20026;-69
2021/12/25 15:43:05;;;;;;;14.33;6.17;;;-0.90;84.50;;;;;;4685229;28;9999699;-69
2021/12/25 15:45:31;;;;;;;17.48;9.40;;;-1.00;84.80;;;;;;5032420;28;20286;-75